sensor_id;sensor_type;location;lat;lon;timestamp;P1;durP1;ratioP1;P2;durP2;ratioP2
50104;SDS011;47690;39.202;-77.198;2024-02-16T00:01:15;4.03;;;2.95;;
50104;SDS011;47690;39.202;-77.198;2024-02-16T00:03:43;3.78;;;3.00;;
50104;SDS011;47690;39.202;-77.198;2024-02-16T00:06:13;4.85;;;2.95;;
50104;SDS011;47690;39.202;-77.198;2024-02-16T00:08:41;4.72;;;3.40;;
50104;SDS011;47690;39.202;-77.198;2024-02-16T00:11:09;5.38;;;3.50;;
50104;SDS011;47690;39.202;-77.198;2024-02-16T00:13:38;8.20;;;4.90;;
50104;SDS011;47690;39.202;-77.198;2024-02-16T00:16:07;7.57;;;4.22;;
50104;SDS011;47690;39.202;-77.198;2024-02-16T00:18:36;6.55;;;4.30;;
50104;SDS011;47690;39.202;-77.198;2024-02-16T00:21:05;6.07;;;3.83;;
50104;SDS011;47690;39.202;-77.198;2024-02-16T00:23:36;4.75;;;2.97;;
50104;SDS011;47690;39.202;-77.198;2024-02-16T00:26:04;4.13;;;2.30;;
50104;SDS011;47690;39.202;-77.198;2024-02-16T00:28:35;2.60;;;2.30;;
50104;SDS011;47690;39.202;-77.198;2024-02-16T00:31:05;2.17;;;1.98;;
50104;SDS011;47690;39.202;-77.198;2024-02-16T00:33:34;2.58;;;2.22;;
50104;SDS011;47690;39.202;-77.198;2024-02-16T00:36:03;3.03;;;2.20;;
50104;SDS011;47690;39.202;-77.198;2024-02-16T00:38:33;4.05;;;3.08;;
50104;SDS011;47690;39.202;-77.198;2024-02-16T00:41:03;5.97;;;4.05;;
50104;SDS011;47690;39.202;-77.198;2024-02-16T00:43:34;5.45;;;3.70;;
50104;SDS011;47690;39.202;-77.198;2024-02-16T00:46:03;4.00;;;2.97;;
50104;SDS011;47690;39.202;-77.198;2024-02-16T00:48:31;5.07;;;3.53;;
50104;SDS011;47690;39.202;-77.198;2024-02-16T00:51:02;5.30;;;3.70;;
50104;SDS011;47690;39.202;-77.198;2024-02-16T00:53:34;3.35;;;2.72;;
50104;SDS011;47690;39.202;-77.198;2024-02-16T00:56:04;4.80;;;2.50;;
50104;SDS011;47690;39.202;-77.198;2024-02-16T00:58:34;3.17;;;2.28;;
50104;SDS011;47690;39.202;-77.198;2024-02-16T01:01:04;4.47;;;2.60;;
50104;SDS011;47690;39.202;-77.198;2024-02-16T01:03:35;3.83;;;2.97;;
50104;SDS011;47690;39.202;-77.198;2024-02-16T01:06:05;4.07;;;2.97;;
50104;SDS011;47690;39.202;-77.198;2024-02-16T01:08:36;5.53;;;3.75;;
50104;SDS011;47690;39.202;-77.198;2024-02-16T01:11:05;4.32;;;3.17;;
50104;SDS011;47690;39.202;-77.198;2024-02-16T01:13:34;4.97;;;2.95;;
50104;SDS011;47690;39.202;-77.198;2024-02-16T01:16:03;4.20;;;2.78;;
50104;SDS011;47690;39.202;-77.198;2024-02-16T01:18:34;3.22;;;2.60;;
50104;SDS011;47690;39.202;-77.198;2024-02-16T01:21:04;2.97;;;2.60;;
50104;SDS011;47690;39.202;-77.198;2024-02-16T01:23:34;2.78;;;2.20;;
50104;SDS011;47690;39.202;-77.198;2024-02-16T01:26:03;3.30;;;2.35;;
50104;SDS011;47690;39.202;-77.198;2024-02-16T01:28:33;3.72;;;2.78;;
50104;SDS011;47690;39.202;-77.198;2024-02-16T01:31:02;3.30;;;2.78;;
50104;SDS011;47690;39.202;-77.198;2024-02-16T01:33:33;5.03;;;3.35;;
50104;SDS011;47690;39.202;-77.198;2024-02-16T01:36:04;4.35;;;3.35;;
50104;SDS011;47690;39.202;-77.198;2024-02-16T01:38:36;4.70;;;3.20;;
50104;SDS011;47690;39.202;-77.198;2024-02-16T01:41:04;3.38;;;2.63;;
50104;SDS011;47690;39.202;-77.198;2024-02-16T01:43:35;4.40;;;3.15;;
50104;SDS011;47690;39.202;-77.198;2024-02-16T01:46:04;3.63;;;2.80;;
50104;SDS011;47690;39.202;-77.198;2024-02-16T01:48:34;3.10;;;2.50;;
50104;SDS011;47690;39.202;-77.198;2024-02-16T01:51:03;3.10;;;2.70;;
50104;SDS011;47690;39.202;-77.198;2024-02-16T01:53:36;2.70;;;2.35;;
50104;SDS011;47690;39.202;-77.198;2024-02-16T01:56:06;3.35;;;2.20;;
50104;SDS011;47690;39.202;-77.198;2024-02-16T01:58:35;2.20;;;2.00;;
50104;SDS011;47690;39.202;-77.198;2024-02-16T02:01:04;2.42;;;2.13;;
50104;SDS011;47690;39.202;-77.198;2024-02-16T02:03:33;2.30;;;2.10;;
50104;SDS011;47690;39.202;-77.198;2024-02-16T02:06:04;2.42;;;2.17;;
50104;SDS011;47690;39.202;-77.198;2024-02-16T02:08:33;2.38;;;2.05;;
50104;SDS011;47690;39.202;-77.198;2024-02-16T02:11:04;2.20;;;2.00;;
50104;SDS011;47690;39.202;-77.198;2024-02-16T02:13:35;2.30;;;2.00;;
50104;SDS011;47690;39.202;-77.198;2024-02-16T02:16:05;2.30;;;2.10;;
50104;SDS011;47690;39.202;-77.198;2024-02-16T02:18:35;2.55;;;1.90;;
50104;SDS011;47690;39.202;-77.198;2024-02-16T02:21:04;2.25;;;2.05;;
50104;SDS011;47690;39.202;-77.198;2024-02-16T02:23:34;2.08;;;1.90;;
50104;SDS011;47690;39.202;-77.198;2024-02-16T02:26:04;1.98;;;1.77;;
50104;SDS011;47690;39.202;-77.198;2024-02-16T02:28:37;2.33;;;1.98;;
50104;SDS011;47690;39.202;-77.198;2024-02-16T02:31:06;2.50;;;2.05;;
50104;SDS011;47690;39.202;-77.198;2024-02-16T02:33:37;2.13;;;1.90;;
50104;SDS011;47690;39.202;-77.198;2024-02-16T02:36:06;2.00;;;1.80;;
50104;SDS011;47690;39.202;-77.198;2024-02-16T02:38:35;2.45;;;2.10;;
50104;SDS011;47690;39.202;-77.198;2024-02-16T02:41:04;1.92;;;1.73;;
50104;SDS011;47690;39.202;-77.198;2024-02-16T02:43:34;1.80;;;1.70;;
50104;SDS011;47690;39.202;-77.198;2024-02-16T02:46:06;2.25;;;1.83;;
50104;SDS011;47690;39.202;-77.198;2024-02-16T02:48:35;2.20;;;1.95;;
50104;SDS011;47690;39.202;-77.198;2024-02-16T02:51:04;2.10;;;1.90;;
50104;SDS011;47690;39.202;-77.198;2024-02-16T02:53:34;1.92;;;1.75;;
50104;SDS011;47690;39.202;-77.198;2024-02-16T02:56:04;1.75;;;1.63;;
50104;SDS011;47690;39.202;-77.198;2024-02-16T02:58:40;2.65;;;1.90;;
50104;SDS011;47690;39.202;-77.198;2024-02-16T03:01:08;1.95;;;1.85;;
50104;SDS011;47690;39.202;-77.198;2024-02-16T03:03:39;1.88;;;1.77;;
50104;SDS011;47690;39.202;-77.198;2024-02-16T03:06:09;1.88;;;1.70;;
50104;SDS011;47690;39.202;-77.198;2024-02-16T03:08:40;2.78;;;2.05;;
50104;SDS011;47690;39.202;-77.198;2024-02-16T03:11:12;2.13;;;1.92;;
50104;SDS011;47690;39.202;-77.198;2024-02-16T03:13:40;3.60;;;2.17;;
50104;SDS011;47690;39.202;-77.198;2024-02-16T03:16:09;2.10;;;1.90;;
50104;SDS011;47690;39.202;-77.198;2024-02-16T03:18:37;2.15;;;1.95;;
50104;SDS011;47690;39.202;-77.198;2024-02-16T03:21:07;1.80;;;1.70;;
50104;SDS011;47690;39.202;-77.198;2024-02-16T03:23:35;2.67;;;2.28;;
50104;SDS011;47690;39.202;-77.198;2024-02-16T03:26:05;2.65;;;2.20;;
50104;SDS011;47690;39.202;-77.198;2024-02-16T03:28:44;2.47;;;2.13;;
50104;SDS011;47690;39.202;-77.198;2024-02-16T03:31:18;1.92;;;1.83;;
50104;SDS011;47690;39.202;-77.198;2024-02-16T03:33:49;3.22;;;1.90;;
50104;SDS011;47690;39.202;-77.198;2024-02-16T03:36:22;2.25;;;1.92;;
50104;SDS011;47690;39.202;-77.198;2024-02-16T03:38:50;2.03;;;1.83;;
50104;SDS011;47690;39.202;-77.198;2024-02-16T03:41:19;1.90;;;1.80;;
50104;SDS011;47690;39.202;-77.198;2024-02-16T03:43:50;2.55;;;2.00;;
50104;SDS011;47690;39.202;-77.198;2024-02-16T03:46:19;2.47;;;1.95;;
50104;SDS011;47690;39.202;-77.198;2024-02-16T03:48:47;1.90;;;1.80;;
50104;SDS011;47690;39.202;-77.198;2024-02-16T03:51:17;2.10;;;1.90;;
50104;SDS011;47690;39.202;-77.198;2024-02-16T03:53:46;2.55;;;2.08;;
50104;SDS011;47690;39.202;-77.198;2024-02-16T03:56:20;2.10;;;1.92;;
50104;SDS011;47690;39.202;-77.198;2024-02-16T03:58:49;2.10;;;1.90;;
50104;SDS011;47690;39.202;-77.198;2024-02-16T04:01:17;2.20;;;2.00;;
50104;SDS011;47690;39.202;-77.198;2024-02-16T04:03:46;2.47;;;2.10;;
50104;SDS011;47690;39.202;-77.198;2024-02-16T04:06:15;3.05;;;2.28;;
50104;SDS011;47690;39.202;-77.198;2024-02-16T04:08:45;2.80;;;2.50;;
50104;SDS011;47690;39.202;-77.198;2024-02-16T04:11:14;2.65;;;2.35;;
50104;SDS011;47690;39.202;-77.198;2024-02-16T04:13:42;2.92;;;2.13;;
50104;SDS011;47690;39.202;-77.198;2024-02-16T04:16:12;3.42;;;2.45;;
50104;SDS011;47690;39.202;-77.198;2024-02-16T04:18:41;2.92;;;2.42;;
50104;SDS011;47690;39.202;-77.198;2024-02-16T04:21:09;2.47;;;2.15;;
50104;SDS011;47690;39.202;-77.198;2024-02-16T04:23:38;2.40;;;2.10;;
50104;SDS011;47690;39.202;-77.198;2024-02-16T04:26:06;2.22;;;2.03;;
50104;SDS011;47690;39.202;-77.198;2024-02-16T04:28:35;2.28;;;2.00;;
50104;SDS011;47690;39.202;-77.198;2024-02-16T04:31:04;2.17;;;1.98;;
50104;SDS011;47690;39.202;-77.198;2024-02-16T04:33:35;2.63;;;2.10;;
50104;SDS011;47690;39.202;-77.198;2024-02-16T04:36:05;2.13;;;1.92;;
50104;SDS011;47690;39.202;-77.198;2024-02-16T04:38:36;1.80;;;1.70;;
50104;SDS011;47690;39.202;-77.198;2024-02-16T04:41:04;2.08;;;1.90;;
50104;SDS011;47690;39.202;-77.198;2024-02-16T04:43:34;2.40;;;1.75;;
50104;SDS011;47690;39.202;-77.198;2024-02-16T04:46:04;1.80;;;1.70;;
50104;SDS011;47690;39.202;-77.198;2024-02-16T04:48:34;1.70;;;1.60;;
50104;SDS011;47690;39.202;-77.198;2024-02-16T04:51:04;1.60;;;1.50;;
50104;SDS011;47690;39.202;-77.198;2024-02-16T04:53:34;2.00;;;1.67;;
50104;SDS011;47690;39.202;-77.198;2024-02-16T04:56:04;1.58;;;1.48;;
50104;SDS011;47690;39.202;-77.198;2024-02-16T04:58:34;1.92;;;1.80;;
50104;SDS011;47690;39.202;-77.198;2024-02-16T05:01:04;1.80;;;1.70;;
50104;SDS011;47690;39.202;-77.198;2024-02-16T05:03:35;2.22;;;1.90;;
50104;SDS011;47690;39.202;-77.198;2024-02-16T05:06:04;1.80;;;1.70;;
50104;SDS011;47690;39.202;-77.198;2024-02-16T05:08:33;1.60;;;1.50;;
50104;SDS011;47690;39.202;-77.198;2024-02-16T05:11:02;1.70;;;1.60;;
50104;SDS011;47690;39.202;-77.198;2024-02-16T05:13:32;1.75;;;1.65;;
50104;SDS011;47690;39.202;-77.198;2024-02-16T05:16:07;1.80;;;1.70;;
50104;SDS011;47690;39.202;-77.198;2024-02-16T05:18:37;2.45;;;1.80;;
50104;SDS011;47690;39.202;-77.198;2024-02-16T05:21:06;1.60;;;1.50;;
50104;SDS011;47690;39.202;-77.198;2024-02-16T05:23:35;1.77;;;1.67;;
50104;SDS011;47690;39.202;-77.198;2024-02-16T05:26:04;1.90;;;1.80;;
50104;SDS011;47690;39.202;-77.198;2024-02-16T05:28:34;1.90;;;1.73;;
50104;SDS011;47690;39.202;-77.198;2024-02-16T05:31:06;1.80;;;1.70;;
50104;SDS011;47690;39.202;-77.198;2024-02-16T05:33:48;1.70;;;1.60;;
50104;SDS011;47690;39.202;-77.198;2024-02-16T05:36:22;1.95;;;1.70;;
50104;SDS011;47690;39.202;-77.198;2024-02-16T05:39:00;1.65;;;1.55;;
50104;SDS011;47690;39.202;-77.198;2024-02-16T05:41:38;1.77;;;1.67;;
50104;SDS011;47690;39.202;-77.198;2024-02-16T05:44:06;1.90;;;1.80;;
50104;SDS011;47690;39.202;-77.198;2024-02-16T05:46:36;1.67;;;1.42;;
50104;SDS011;47690;39.202;-77.198;2024-02-16T05:49:05;1.80;;;1.70;;
50104;SDS011;47690;39.202;-77.198;2024-02-16T05:51:34;1.55;;;1.48;;
50104;SDS011;47690;39.202;-77.198;2024-02-16T05:54:04;1.73;;;1.63;;
50104;SDS011;47690;39.202;-77.198;2024-02-16T05:56:34;1.63;;;1.52;;
50104;SDS011;47690;39.202;-77.198;2024-02-16T05:59:05;1.90;;;1.70;;
50104;SDS011;47690;39.202;-77.198;2024-02-16T06:01:33;1.70;;;1.60;;
50104;SDS011;47690;39.202;-77.198;2024-02-16T06:04:02;1.50;;;1.40;;
50104;SDS011;47690;39.202;-77.198;2024-02-16T06:06:35;1.58;;;1.50;;
50104;SDS011;47690;39.202;-77.198;2024-02-16T06:09:05;1.60;;;1.50;;
50104;SDS011;47690;39.202;-77.198;2024-02-16T06:11:36;2.03;;;1.63;;
50104;SDS011;47690;39.202;-77.198;2024-02-16T06:14:07;1.70;;;1.60;;
50104;SDS011;47690;39.202;-77.198;2024-02-16T06:16:36;1.80;;;1.70;;
50104;SDS011;47690;39.202;-77.198;2024-02-16T06:19:04;1.30;;;1.30;;
50104;SDS011;47690;39.202;-77.198;2024-02-16T06:21:35;1.60;;;1.50;;
50104;SDS011;47690;39.202;-77.198;2024-02-16T06:24:04;1.85;;;1.50;;
50104;SDS011;47690;39.202;-77.198;2024-02-16T06:26:34;1.70;;;1.60;;
50104;SDS011;47690;39.202;-77.198;2024-02-16T06:29:04;1.40;;;1.30;;
50104;SDS011;47690;39.202;-77.198;2024-02-16T06:31:34;1.80;;;1.70;;
50104;SDS011;47690;39.202;-77.198;2024-02-16T06:34:06;1.75;;;1.65;;
50104;SDS011;47690;39.202;-77.198;2024-02-16T06:36:36;1.60;;;1.50;;
50104;SDS011;47690;39.202;-77.198;2024-02-16T06:39:08;1.67;;;1.58;;
50104;SDS011;47690;39.202;-77.198;2024-02-16T06:41:38;1.60;;;1.50;;
50104;SDS011;47690;39.202;-77.198;2024-02-16T06:44:07;1.75;;;1.65;;
50104;SDS011;47690;39.202;-77.198;2024-02-16T06:46:35;0.98;;;0.98;;
50104;SDS011;47690;39.202;-77.198;2024-02-16T06:49:04;1.45;;;1.35;;
50104;SDS011;47690;39.202;-77.198;2024-02-16T06:51:33;1.60;;;1.50;;
50104;SDS011;47690;39.202;-77.198;2024-02-16T06:54:03;1.30;;;1.30;;
50104;SDS011;47690;39.202;-77.198;2024-02-16T06:56:34;1.38;;;1.27;;
50104;SDS011;47690;39.202;-77.198;2024-02-16T06:59:03;1.38;;;1.27;;
50104;SDS011;47690;39.202;-77.198;2024-02-16T07:01:33;1.50;;;1.40;;
50104;SDS011;47690;39.202;-77.198;2024-02-16T07:04:02;1.20;;;1.20;;
50104;SDS011;47690;39.202;-77.198;2024-02-16T07:06:34;2.08;;;1.30;;
50104;SDS011;47690;39.202;-77.198;2024-02-16T07:09:03;1.27;;;1.27;;
50104;SDS011;47690;39.202;-77.198;2024-02-16T07:11:34;1.38;;;1.30;;
50104;SDS011;47690;39.202;-77.198;2024-02-16T07:14:06;1.60;;;1.50;;
50104;SDS011;47690;39.202;-77.198;2024-02-16T07:16:35;1.50;;;1.42;;
50104;SDS011;47690;39.202;-77.198;2024-02-16T07:19:04;1.70;;;1.60;;
50104;SDS011;47690;39.202;-77.198;2024-02-16T07:21:34;1.50;;;1.40;;
50104;SDS011;47690;39.202;-77.198;2024-02-16T07:24:04;1.13;;;1.13;;
50104;SDS011;47690;39.202;-77.198;2024-02-16T07:26:34;1.38;;;1.33;;
50104;SDS011;47690;39.202;-77.198;2024-02-16T07:29:04;1.50;;;1.40;;
50104;SDS011;47690;39.202;-77.198;2024-02-16T07:31:33;1.45;;;1.35;;
50104;SDS011;47690;39.202;-77.198;2024-02-16T07:34:04;1.33;;;1.33;;
50104;SDS011;47690;39.202;-77.198;2024-02-16T07:36:35;1.17;;;1.17;;
50104;SDS011;47690;39.202;-77.198;2024-02-16T07:39:04;1.23;;;1.23;;
50104;SDS011;47690;39.202;-77.198;2024-02-16T07:41:33;1.50;;;1.40;;
50104;SDS011;47690;39.202;-77.198;2024-02-16T07:44:01;1.13;;;1.13;;
50104;SDS011;47690;39.202;-77.198;2024-02-16T07:46:33;1.48;;;1.38;;
50104;SDS011;47690;39.202;-77.198;2024-02-16T07:49:08;1.10;;;1.10;;
50104;SDS011;47690;39.202;-77.198;2024-02-16T07:51:39;1.33;;;1.27;;
50104;SDS011;47690;39.202;-77.198;2024-02-16T07:54:08;1.67;;;1.58;;
50104;SDS011;47690;39.202;-77.198;2024-02-16T07:56:36;1.20;;;1.20;;
50104;SDS011;47690;39.202;-77.198;2024-02-16T07:59:05;1.42;;;1.38;;
50104;SDS011;47690;39.202;-77.198;2024-02-16T08:01:34;1.20;;;1.20;;
50104;SDS011;47690;39.202;-77.198;2024-02-16T08:04:04;1.20;;;1.20;;
50104;SDS011;47690;39.202;-77.198;2024-02-16T08:06:34;1.35;;;1.30;;
50104;SDS011;47690;39.202;-77.198;2024-02-16T08:09:04;1.40;;;1.30;;
50104;SDS011;47690;39.202;-77.198;2024-02-16T08:11:33;1.50;;;1.40;;
50104;SDS011;47690;39.202;-77.198;2024-02-16T08:14:04;1.55;;;1.50;;
50104;SDS011;47690;39.202;-77.198;2024-02-16T08:16:34;1.27;;;1.25;;
50104;SDS011;47690;39.202;-77.198;2024-02-16T08:19:05;1.33;;;1.30;;
50104;SDS011;47690;39.202;-77.198;2024-02-16T08:21:34;1.20;;;1.20;;
50104;SDS011;47690;39.202;-77.198;2024-02-16T08:24:06;1.50;;;1.40;;
50104;SDS011;47690;39.202;-77.198;2024-02-16T08:26:35;1.50;;;1.40;;
50104;SDS011;47690;39.202;-77.198;2024-02-16T08:29:05;1.25;;;1.23;;
50104;SDS011;47690;39.202;-77.198;2024-02-16T08:31:35;1.60;;;1.50;;
50104;SDS011;47690;39.202;-77.198;2024-02-16T08:34:04;1.40;;;1.30;;
50104;SDS011;47690;39.202;-77.198;2024-02-16T08:36:36;1.50;;;1.40;;
50104;SDS011;47690;39.202;-77.198;2024-02-16T08:39:07;1.17;;;1.17;;
50104;SDS011;47690;39.202;-77.198;2024-02-16T08:41:35;1.42;;;1.33;;
50104;SDS011;47690;39.202;-77.198;2024-02-16T08:44:04;1.52;;;1.42;;
50104;SDS011;47690;39.202;-77.198;2024-02-16T08:46:37;1.50;;;1.40;;
50104;SDS011;47690;39.202;-77.198;2024-02-16T08:49:08;1.40;;;1.30;;
50104;SDS011;47690;39.202;-77.198;2024-02-16T08:51:37;1.67;;;1.58;;
50104;SDS011;47690;39.202;-77.198;2024-02-16T08:54:06;1.60;;;1.50;;
50104;SDS011;47690;39.202;-77.198;2024-02-16T08:56:36;1.45;;;1.35;;
50104;SDS011;47690;39.202;-77.198;2024-02-16T08:59:09;1.70;;;1.60;;
50104;SDS011;47690;39.202;-77.198;2024-02-16T09:01:38;1.35;;;1.33;;
50104;SDS011;47690;39.202;-77.198;2024-02-16T09:04:10;1.30;;;1.30;;
50104;SDS011;47690;39.202;-77.198;2024-02-16T09:06:38;1.40;;;1.30;;
50104;SDS011;47690;39.202;-77.198;2024-02-16T09:09:07;1.33;;;1.30;;
50104;SDS011;47690;39.202;-77.198;2024-02-16T09:11:35;1.10;;;1.10;;
50104;SDS011;47690;39.202;-77.198;2024-02-16T09:14:04;1.45;;;1.35;;
50104;SDS011;47690;39.202;-77.198;2024-02-16T09:16:35;1.20;;;1.20;;
50104;SDS011;47690;39.202;-77.198;2024-02-16T09:19:06;1.70;;;1.60;;
50104;SDS011;47690;39.202;-77.198;2024-02-16T09:21:34;1.30;;;1.30;;
50104;SDS011;47690;39.202;-77.198;2024-02-16T09:24:03;1.08;;;1.08;;
50104;SDS011;47690;39.202;-77.198;2024-02-16T09:26:38;1.30;;;1.30;;
50104;SDS011;47690;39.202;-77.198;2024-02-16T09:29:06;1.50;;;1.40;;
50104;SDS011;47690;39.202;-77.198;2024-02-16T09:31:35;1.48;;;1.40;;
50104;SDS011;47690;39.202;-77.198;2024-02-16T09:34:04;1.25;;;1.25;;
50104;SDS011;47690;39.202;-77.198;2024-02-16T09:36:34;1.52;;;1.42;;
50104;SDS011;47690;39.202;-77.198;2024-02-16T09:39:05;1.55;;;1.45;;
50104;SDS011;47690;39.202;-77.198;2024-02-16T09:41:34;1.42;;;1.33;;
50104;SDS011;47690;39.202;-77.198;2024-02-16T09:44:05;1.50;;;1.40;;
50104;SDS011;47690;39.202;-77.198;2024-02-16T09:46:36;1.23;;;1.20;;
50104;SDS011;47690;39.202;-77.198;2024-02-16T09:49:04;1.55;;;1.45;;
50104;SDS011;47690;39.202;-77.198;2024-02-16T09:51:36;1.45;;;1.40;;
50104;SDS011;47690;39.202;-77.198;2024-02-16T09:54:06;1.30;;;1.30;;
50104;SDS011;47690;39.202;-77.198;2024-02-16T09:56:35;1.52;;;1.42;;
50104;SDS011;47690;39.202;-77.198;2024-02-16T09:59:04;1.23;;;1.23;;
50104;SDS011;47690;39.202;-77.198;2024-02-16T10:01:35;1.42;;;1.33;;
50104;SDS011;47690;39.202;-77.198;2024-02-16T10:04:07;1.70;;;1.60;;
50104;SDS011;47690;39.202;-77.198;2024-02-16T10:06:45;1.60;;;1.50;;
50104;SDS011;47690;39.202;-77.198;2024-02-16T10:09:24;1.65;;;1.55;;
50104;SDS011;47690;39.202;-77.198;2024-02-16T10:11:53;1.38;;;1.33;;
50104;SDS011;47690;39.202;-77.198;2024-02-16T10:14:22;1.63;;;1.52;;
50104;SDS011;47690;39.202;-77.198;2024-02-16T10:17:03;1.60;;;1.50;;
50104;SDS011;47690;39.202;-77.198;2024-02-16T10:19:34;1.98;;;1.50;;
50104;SDS011;47690;39.202;-77.198;2024-02-16T10:22:10;1.50;;;1.40;;
50104;SDS011;47690;39.202;-77.198;2024-02-16T10:24:40;1.50;;;1.42;;
50104;SDS011;47690;39.202;-77.198;2024-02-16T10:27:15;1.63;;;1.52;;
50104;SDS011;47690;39.202;-77.198;2024-02-16T10:29:47;1.60;;;1.50;;
50104;SDS011;47690;39.202;-77.198;2024-02-16T10:32:18;1.70;;;1.60;;
50104;SDS011;47690;39.202;-77.198;2024-02-16T10:34:49;1.58;;;1.48;;
50104;SDS011;47690;39.202;-77.198;2024-02-16T10:37:20;1.60;;;1.50;;
50104;SDS011;47690;39.202;-77.198;2024-02-16T10:39:49;1.63;;;1.52;;
50104;SDS011;47690;39.202;-77.198;2024-02-16T10:42:22;1.40;;;1.30;;
50104;SDS011;47690;39.202;-77.198;2024-02-16T10:44:54;1.27;;;1.27;;
50104;SDS011;47690;39.202;-77.198;2024-02-16T10:47:24;1.60;;;1.50;;
50104;SDS011;47690;39.202;-77.198;2024-02-16T10:49:52;1.58;;;1.48;;
50104;SDS011;47690;39.202;-77.198;2024-02-16T10:52:21;1.60;;;1.50;;
50104;SDS011;47690;39.202;-77.198;2024-02-16T10:54:51;1.48;;;1.38;;
50104;SDS011;47690;39.202;-77.198;2024-02-16T10:57:20;1.63;;;1.52;;
50104;SDS011;47690;39.202;-77.198;2024-02-16T10:59:52;1.65;;;1.55;;
50104;SDS011;47690;39.202;-77.198;2024-02-16T11:02:22;1.60;;;1.50;;
50104;SDS011;47690;39.202;-77.198;2024-02-16T11:04:51;1.50;;;1.40;;
50104;SDS011;47690;39.202;-77.198;2024-02-16T11:07:21;1.55;;;1.45;;
50104;SDS011;47690;39.202;-77.198;2024-02-16T11:09:52;1.60;;;1.50;;
50104;SDS011;47690;39.202;-77.198;2024-02-16T11:12:21;1.52;;;1.42;;
50104;SDS011;47690;39.202;-77.198;2024-02-16T11:14:50;1.40;;;1.33;;
50104;SDS011;47690;39.202;-77.198;2024-02-16T11:17:23;1.67;;;1.58;;
50104;SDS011;47690;39.202;-77.198;2024-02-16T11:19:53;1.50;;;1.45;;
50104;SDS011;47690;39.202;-77.198;2024-02-16T11:22:22;1.52;;;1.42;;
50104;SDS011;47690;39.202;-77.198;2024-02-16T11:24:58;1.60;;;1.50;;
50104;SDS011;47690;39.202;-77.198;2024-02-16T11:27:31;1.40;;;1.40;;
50104;SDS011;47690;39.202;-77.198;2024-02-16T11:30:03;1.60;;;1.50;;
50104;SDS011;47690;39.202;-77.198;2024-02-16T11:32:34;1.45;;;1.40;;
50104;SDS011;47690;39.202;-77.198;2024-02-16T11:35:05;1.80;;;1.70;;
50104;SDS011;47690;39.202;-77.198;2024-02-16T11:37:36;1.70;;;1.60;;
50104;SDS011;47690;39.202;-77.198;2024-02-16T11:40:05;1.77;;;1.67;;
50104;SDS011;47690;39.202;-77.198;2024-02-16T11:42:39;1.67;;;1.58;;
50104;SDS011;47690;39.202;-77.198;2024-02-16T11:45:11;1.40;;;1.30;;
50104;SDS011;47690;39.202;-77.198;2024-02-16T11:47:40;1.60;;;1.50;;
50104;SDS011;47690;39.202;-77.198;2024-02-16T11:50:09;1.75;;;1.65;;
50104;SDS011;47690;39.202;-77.198;2024-02-16T11:52:42;1.48;;;1.38;;
50104;SDS011;47690;39.202;-77.198;2024-02-16T11:55:11;1.63;;;1.50;;
50104;SDS011;47690;39.202;-77.198;2024-02-16T11:57:39;1.52;;;1.42;;
50104;SDS011;47690;39.202;-77.198;2024-02-16T12:00:09;1.48;;;1.40;;
50104;SDS011;47690;39.202;-77.198;2024-02-16T12:02:45;1.30;;;1.30;;
50104;SDS011;47690;39.202;-77.198;2024-02-16T12:05:14;1.60;;;1.50;;
50104;SDS011;47690;39.202;-77.198;2024-02-16T12:07:43;1.40;;;1.40;;
50104;SDS011;47690;39.202;-77.198;2024-02-16T12:10:15;1.42;;;1.42;;
50104;SDS011;47690;39.202;-77.198;2024-02-16T12:12:43;1.73;;;1.63;;
50104;SDS011;47690;39.202;-77.198;2024-02-16T12:15:12;1.48;;;1.40;;
50104;SDS011;47690;39.202;-77.198;2024-02-16T12:17:41;1.35;;;1.35;;
50104;SDS011;47690;39.202;-77.198;2024-02-16T12:20:14;1.60;;;1.50;;
50104;SDS011;47690;39.202;-77.198;2024-02-16T12:22:43;1.42;;;1.33;;
50104;SDS011;47690;39.202;-77.198;2024-02-16T12:25:11;1.55;;;1.48;;
50104;SDS011;47690;39.202;-77.198;2024-02-16T12:27:40;1.27;;;1.23;;
50104;SDS011;47690;39.202;-77.198;2024-02-16T12:30:09;1.40;;;1.40;;
50104;SDS011;47690;39.202;-77.198;2024-02-16T12:32:41;1.33;;;1.33;;
50104;SDS011;47690;39.202;-77.198;2024-02-16T12:35:10;1.60;;;1.50;;
50104;SDS011;47690;39.202;-77.198;2024-02-16T12:37:39;1.40;;;1.40;;
50104;SDS011;47690;39.202;-77.198;2024-02-16T12:40:08;1.58;;;1.48;;
50104;SDS011;47690;39.202;-77.198;2024-02-16T12:42:37;1.50;;;1.40;;
50104;SDS011;47690;39.202;-77.198;2024-02-16T12:45:08;1.50;;;1.40;;
50104;SDS011;47690;39.202;-77.198;2024-02-16T12:47:40;1.60;;;1.50;;
50104;SDS011;47690;39.202;-77.198;2024-02-16T12:50:08;1.60;;;1.50;;
50104;SDS011;47690;39.202;-77.198;2024-02-16T12:52:39;1.65;;;1.55;;
50104;SDS011;47690;39.202;-77.198;2024-02-16T12:55:20;1.45;;;1.45;;
50104;SDS011;47690;39.202;-77.198;2024-02-16T12:57:49;1.40;;;1.30;;
50104;SDS011;47690;39.202;-77.198;2024-02-16T13:00:19;1.70;;;1.60;;
50104;SDS011;47690;39.202;-77.198;2024-02-16T13:02:48;1.52;;;1.42;;
50104;SDS011;47690;39.202;-77.198;2024-02-16T13:05:16;1.77;;;1.67;;
50104;SDS011;47690;39.202;-77.198;2024-02-16T13:07:45;1.35;;;1.30;;
50104;SDS011;47690;39.202;-77.198;2024-02-16T13:10:13;1.40;;;1.30;;
50104;SDS011;47690;39.202;-77.198;2024-02-16T13:12:42;1.63;;;1.52;;
50104;SDS011;47690;39.202;-77.198;2024-02-16T13:15:11;1.60;;;1.50;;
50104;SDS011;47690;39.202;-77.198;2024-02-16T13:17:54;1.52;;;1.50;;
50104;SDS011;47690;39.202;-77.198;2024-02-16T13:20:24;1.50;;;1.40;;
50104;SDS011;47690;39.202;-77.198;2024-02-16T13:22:53;1.45;;;1.35;;
50104;SDS011;47690;39.202;-77.198;2024-02-16T13:25:21;1.50;;;1.40;;
50104;SDS011;47690;39.202;-77.198;2024-02-16T13:27:50;1.60;;;1.50;;
50104;SDS011;47690;39.202;-77.198;2024-02-16T13:30:19;1.70;;;1.60;;
50104;SDS011;47690;39.202;-77.198;2024-02-16T13:32:49;1.58;;;1.48;;
50104;SDS011;47690;39.202;-77.198;2024-02-16T13:35:18;1.70;;;1.60;;
50104;SDS011;47690;39.202;-77.198;2024-02-16T13:37:48;1.60;;;1.50;;
50104;SDS011;47690;39.202;-77.198;2024-02-16T13:40:16;1.75;;;1.65;;
50104;SDS011;47690;39.202;-77.198;2024-02-16T13:42:46;1.70;;;1.60;;
50104;SDS011;47690;39.202;-77.198;2024-02-16T13:45:17;1.45;;;1.35;;
50104;SDS011;47690;39.202;-77.198;2024-02-16T13:47:46;1.63;;;1.52;;
50104;SDS011;47690;39.202;-77.198;2024-02-16T13:50:15;1.50;;;1.50;;
50104;SDS011;47690;39.202;-77.198;2024-02-16T13:52:44;1.45;;;1.40;;
50104;SDS011;47690;39.202;-77.198;2024-02-16T13:55:12;2.00;;;1.80;;
50104;SDS011;47690;39.202;-77.198;2024-02-16T13:57:41;1.80;;;1.70;;
50104;SDS011;47690;39.202;-77.198;2024-02-16T14:00:09;1.60;;;1.50;;
50104;SDS011;47690;39.202;-77.198;2024-02-16T14:02:39;1.67;;;1.58;;
50104;SDS011;47690;39.202;-77.198;2024-02-16T14:05:08;1.80;;;1.70;;
50104;SDS011;47690;39.202;-77.198;2024-02-16T14:07:36;1.77;;;1.67;;
50104;SDS011;47690;39.202;-77.198;2024-02-16T14:10:17;1.77;;;1.67;;
50104;SDS011;47690;39.202;-77.198;2024-02-16T14:12:46;1.70;;;1.60;;
50104;SDS011;47690;39.202;-77.198;2024-02-16T14:15:15;1.70;;;1.60;;
50104;SDS011;47690;39.202;-77.198;2024-02-16T14:17:44;1.50;;;1.40;;
50104;SDS011;47690;39.202;-77.198;2024-02-16T14:20:13;1.90;;;1.80;;
50104;SDS011;47690;39.202;-77.198;2024-02-16T14:22:42;1.38;;;1.38;;
50104;SDS011;47690;39.202;-77.198;2024-02-16T14:25:11;1.42;;;1.40;;
50104;SDS011;47690;39.202;-77.198;2024-02-16T14:27:40;1.40;;;1.35;;
50104;SDS011;47690;39.202;-77.198;2024-02-16T14:30:10;1.60;;;1.50;;
50104;SDS011;47690;39.202;-77.198;2024-02-16T14:32:43;1.63;;;1.52;;
50104;SDS011;47690;39.202;-77.198;2024-02-16T14:35:14;1.55;;;1.45;;
50104;SDS011;47690;39.202;-77.198;2024-02-16T14:37:43;1.70;;;1.60;;